WEATHER DATA

YESTERDAY
Time Temp. Dewp. Hum. Wind dir Wind speed Wind gust Bar. 1h Prec. 24h Prec.
00:06 -2 -3.7 87 0 0 1018.6 0.0000 0.0000
00:16 -2 -3.7 87 0 0 1018.7 0.0000 0.0000
00:27 -2.1 -3.8 87 0 0 1018.9 0.0000 0.0000
00:36 -2.1 -3.8 87 0 0 1019.1 0.0000 0.0000
00:46 -2.1 -3.9 86 0 0 1019 0.0000 0.0000
00:56 -2.2 -4 86 0 0 1019.1 0.0000 0.0000
01:17 -2.3 -4.1 86 0 0 1019.4 0.0000 0.0000
01:26 -2.4 -4.2 86 0 0 1019.4 0.0000 0.0000
01:37 -2.5 -4.3 86 0 0 1019.3 0.0000 0.0000
01:47 -2.6 -4.4 86 0 0 1019.7 0.0000 0.0000
01:57 -2.8 -4.6 86 0 0 1019.5 0.0000 0.0000
02:07 -2.9 -4.7 86 0 0 1019.6 0.0000 0.0000
02:17 -3 -4.8 86 0 0 1019.5 0.0000 0.0000
02:27 -3.1 -4.9 86 0 0 1019.5 0.0000 0.0000
02:37 -3.3 -5.1 86 0 0 1019.7 0.0000 0.0000
02:48 -3.4 -5.2 86 0 0 1019.8 0.0000 0.0000
02:58 -3.6 -5.2 87 0 0 1019.8 0.0000 0.0000
03:08 -3.7 -5.3 87 0 0 1019.7 0.0000 0.0000
03:17 -3.9 -5.5 87 0 0 1019.7 0.0000 0.0000
03:28 -4 -5.6 87 0 0 1019.7 0.0000 0.0000
03:38 -4.1 -5.6 88 0 0 1019.7 0.0000 0.0000
03:48 -4.2 -5.7 88 0 0 1019.8 0.0000 0.0000
03:58 -4.3 -5.8 88 0 0 1019.8 0.0000 0.0000
04:08 -4.4 -5.9 88 0 0 1019.8 0.0000 0.0000
04:18 -4.4 -5.8 89 0 0 1019.7 0.0000 0.0000
04:28 -4.5 -5.9 89 0 0 1019.6 0.0000 0.0000
04:39 -4.6 -6 89 0 0 1019.6 0.0000 0.0000
04:49 -4.8 -6.2 89 0 0 1019.6 0.0000 0.0000
04:59 -4.9 -6.3 89 0 0 1019.5 0.0000 0.0000
05:08 -4.9 -6.3 89 0 0 1019.4 0.0000 0.0000
05:19 -4.9 -6.1 90 0 0 1019.5 0.0000 0.0000
05:29 -4.9 -6.1 90 0 0 1019.5 0.0000 0.0000
05:39 -4.8 -5.9 91 0 0 1019.5 0.0000 0.0000
05:49 -4.7 -5.8 91 0 0 1019.3 0.0000 0.0000
06:00 -4.6 -5.7 91 0 0 1019.2 0.0000 0.0000
06:09 -4.5 -5.6 91 0 0 1019.3 0.0000 0.0000
06:19 -4.5 -5.6 91 0 0 1019.2 0.0000 0.0000
06:30 -4.4 -5.4 92 0 0 1019.2 0.0000 0.0000
06:40 -4.3 -5.3 92 0 0 1019.2 0.0000 0.0000
06:50 -4.2 -5.2 92 0 0 1018.9 0.0000 0.0000
07:00 -4.1 -5.1 92 0 0 1019 0.0000 0.0000
07:10 -4 -5 92 0 0 1018.8 0.0000 0.0000
07:20 -3.9 -4.9 92 0 0 1018.6 0.0000 0.0000
07:30 -3.8 -4.7 93 0 0 1018.5 0.0000 0.0000
07:41 -3.7 -4.6 93 0 0 1018.5 0.0000 0.0000
07:50 -3.7 -4.6 93 0 0 1018.4 0.0000 0.0000
08:00 -3.6 -4.6 92 0 0 1018.4 0.0000 0.0000
08:10 -3.7 -4.7 92 0 0 1018.4 0.0000 0.0000
08:21 -3.7 -4.7 92 0 0 1018.5 0.0000 0.0000
08:31 -3.7 -4.7 92 0 0 1018.3 0.0000 0.0000
08:41 -3.7 -4.6 93 0 0 1018.3 0.0000 0.0000
08:51 -3.7 -4.6 93 0 0 1018.3 0.0000 0.0000
09:02 -3.7 -4.6 93 0 0 1018.3 0.0000 0.0000
09:11 -3.7 -4.6 93 0 0 1018.3 0.0000 0.0000
09:21 -3.7 -4.6 93 0 0 1018.4 0.0000 0.0000
09:32 -3.7 -4.6 93 0 0 1018.2 0.0000 0.0000
09:42 -3.6 -4.5 93 0 0 1018.1 0.0000 0.0000
10:02 -3.4 -4.1 94 0 0 1018.2 0.0000 0.0000
10:12 -3.3 -4 94 0 0 1018.1 0.0000 0.0000
10:32 -2.8 -3.5 94 0 0 1018 0.0000 0.0000
10:42 -2.7 -3.4 94 0 0 1018 0.0000 0.0000
10:53 -2.5 -3.2 94 0 0 1017.8 0.0000 0.0000
11:03 -2.3 -2.9 95 0 0 1017.7 0.0000 0.0000
11:12 -2.1 -2.7 95 0 0 1017.7 0.0000 0.0000
11:23 -1.9 -2.5 95 0 0 1017.6 0.0000 0.0000
11:32 -1.7 -2.3 95 0 0 1017.5 0.0000 0.0000
11:43 -1.6 -2.2 95 0 0 1017.4 0.0000 0.0000
11:53 -1.5 -2.1 95 0 0 1017.2 0.0000 0.0000
12:04 -1.3 -2 94 0 0 1017.1 0.0000 0.0000
12:13 -1.2 -1.9 94 0 0 1016.9 0.0000 0.0000
12:23 -1.1 -1.8 94 0 0 1016.6 0.0000 0.0000
12:34 -0.9 -1.6 94 0 0 1016.4 0.0000 0.0000
12:44 -0.8 -1.5 94 0 0 1016.3 0.0000 0.0000
12:54 -0.6 -1.3 94 0 0 1016.4 0.0000 0.0000
13:04 -0.5 -1.2 94 0 0 1016.1 0.0000 0.0000
13:14 -0.3 -1 94 0 0 1016 0.0000 0.0000
13:24 -0.2 -0.9 94 0 0 1015.8 0.0000 0.0000
13:33 -0.1 -0.8 94 0 0 1015.6 0.0000 0.0000
13:45 0 -0.7 94 0 0 1015.2 0.0000 0.0000
13:55 0 -0.9 93 0 0 1015.1 0.0000 0.0000
14:05 0.1 -0.8 93 0 0 1014.9 0.0000 0.0000
14:14 0.1 -0.8 93 0 0 1015.1 0.0000 0.0000
14:25 0.2 -0.7 93 0 0 1015 0.0000 0.0000
14:35 0.2 -0.7 93 0 0 1014.6 0.0000 0.0000
14:45 0.2 -0.7 93 0 0 1014.6 0.0000 0.0000
14:55 0.2 -0.7 93 0 0 1014.4 0.0000 0.0000
15:06 0.2 -0.7 93 0 0 1013.9 0.0000 0.0000
15:15 0.2 -0.7 93 0 0 1013.7 0.0000 0.0000
15:25 0.2 -0.7 93 0 0 1013.5 0.0000 0.0000
15:36 0.1 -0.8 93 0 0 1013.3 0.0000 0.0000
15:46 0.1 -0.7 94 0 0 1013.1 0.0000 0.0000
15:56 0.1 -0.7 94 0 0 1012.7 0.0000 0.0000
16:06 0.1 -0.7 94 0 0 1012 0.0000 0.0000
16:16 0.1 -0.7 94 0 0 1012 0.0000 0.0000
16:26 0.2 -0.6 94 0 0 1011.8 0.0000 0.0000
16:36 0.2 -0.6 94 0 0 1011.6 0.0000 0.0000
16:47 0.2 -0.6 94 0 0 1011 0.0000 0.0000
16:57 0.3 -0.5 94 0 0 1010.8 0.0000 0.0000
17:07 0.3 -0.5 94 0 0 1010.8 0.0000 0.0000
17:16 0.3 -0.6 93 0 0 1010.7 0.0000 0.0000
17:27 0.4 -0.5 93 0 0 1010.3 0.0000 0.0000
17:37 0.4 -0.5 93 0 0 1010 0.0000 0.0000
17:47 0.5 -0.6 92 0 0 1009.7 0.0000 0.0000
17:57 0.5 -0.6 92 0 0 1009.4 0.0000 0.0000
18:08 0.5 -0.6 92 0 0 1009.2 0.0000 0.0000
18:18 0.6 -0.5 92 0 0 1008.7 0.0000 0.0000
18:32 0.7 -0.4 92 0 0 1008.4 0.0000 0.0000
18:43 0.8 -0.3 92 0 0 1008.3 0.0000 0.0000
18:53 0.9 -0.2 92 0 0 1008 0.0000 0.0000
19:03 1 -0.1 92 0 0 1007.4 0.0000 0.0000
19:13 1.1 0 92 0 0 1007.2 0.0000 0.0000
19:23 1.3 0.1 92 0 0 1007 0.0000 0.0000
19:33 1.4 0.2 92 0 0 1007 0.0000 0.0000
19:43 1.5 0.3 92 0 0 1006.7 0.0000 0.0000
19:54 1.5 0.3 92 0 0 1006.6 0.0000 0.0000
20:04 1.6 0.4 92 0 0 1006.7 0.0000 0.0000
20:14 1.7 0.5 92 0 0 1006.5 0.0000 0.0000
20:24 1.7 0.5 92 0 0 1006.5 0.0000 0.0000
20:34 1.8 0.6 92 0 0 1006.4 0.0000 0.0000
20:44 1.9 0.7 92 0 0 1005.9 0.0000 0.0000
20:54 1.9 0.7 92 0 0 1005.6 0.0000 0.0000
21:05 1.8 0.6 92 0 0 1005.4 0.0000 0.0000
21:15 1.8 0.6 92 0 0 1005.4 0.0000 0.0000
21:25 1.7 0.5 92 0 0 1005.3 0.0000 0.0000
21:34 1.7 0.5 92 0 0 1005.1 0.0000 0.0000
21:45 1.7 0.5 92 0 0 1005 0.0000 0.0000
21:55 1.6 0.4 92 0 0 1005.2 0.0000 0.0000
22:05 1.5 0.3 92 0 0 1005.2 0.0000 0.0000
22:15 1.4 0.2 92 0 0 1005.2 0.0000 0.0000
22:26 1.3 0 91 0 0 1005.1 0.0000 0.0000
22:36 1.2 -0.1 91 0 0 1004.7 0.0000 0.0000
22:46 1.1 -0.2 91 0 0 1004.8 0.0000 0.0000
22:56 1.1 -0.2 91 0 0 1004.9 0.0000 0.0000
23:07 1.1 -0.2 91 0 0 1004.6 0.0000 0.0000
23:17 1 -0.3 91 0 0 1004.7 0.0000 0.0000
23:26 1 -0.3 91 0 0 1004.8 0.0000 0.0000
23:37 0.9 -0.4 91 0 0 1004.7 0.0000 0.0000
23:47 0.8 -0.4 91 0 0 1004.4 0.0000 0.0000
23:57 0.7 -0.5 91 0 0 1004.2 0.0000

DAY STATISTIC

2020-01-23
TEMPERATURE
AVERAGE
-1.4
HIGH
1.9
20:44
LOW
-4.9
04:59
PRESSURE
AVERAGE
1014.3
HIGH
1019.8
02:48
LOW
1004.2
23:57
DEWPOINT
AVERAGE
-2.5
HIGH
0.7
20:44
LOW
-6.3
04:59
HUMIDITY
AVERAGE
92
HIGH
95
11:03
LOW
86
00:46
WIND SPEED
AVERAGE
0.0
HIGH
0.0
07:43
WIND GUST
AVERAGE
0.0
HIGH
0.0
07:43
WIND DIRECTION
PREVAILING
%
PRECIPITATION
RAIN HOUR
0.0
RAIN DAY
0.0
TEMPERATURE (°C)
LOW
-4.9
HIGH
1.9
AVERAGE
-1.4
PRESSURE (hpa)
LOW
1004.2
HIGH
1019.8
AVERAGE
1014.3
DEVICE